createdAt,value
2019-04-13T00:00:39.932Z,102597.27
2019-04-13T00:03:08.390Z,102595.22
2019-04-13T00:05:44.310Z,102591.25
2019-04-13T00:08:14.456Z,102598.55
2019-04-13T00:10:46.999Z,102592.92
2019-04-13T00:13:15.463Z,102590.63
2019-04-13T00:15:43.973Z,102593.59
2019-04-13T00:18:12.433Z,102585.90
2019-04-13T00:20:40.891Z,102585.77
2019-04-13T00:23:09.391Z,102584.40
2019-04-13T00:25:37.848Z,102588.62
2019-04-13T00:28:06.307Z,102582.51
2019-04-13T00:30:34.819Z,102588.41
2019-04-13T00:33:03.310Z,102581.22
2019-04-13T00:35:31.769Z,102584.55
2019-04-13T00:38:00.260Z,102583.27
2019-04-13T00:40:28.719Z,102582.26
2019-04-13T00:42:57.170Z,102578.69
2019-04-13T00:45:25.684Z,102584.80
2019-04-13T00:47:54.133Z,102577.64
2019-04-13T00:50:22.594Z,102573.45
2019-04-13T00:52:52.156Z,102576.60
2019-04-13T00:55:20.625Z,102577.15
2019-04-13T00:57:49.154Z,102572.95
2019-04-13T01:00:17.724Z,102572.83
2019-04-13T01:02:46.170Z,102575.70
2019-04-13T01:05:14.638Z,102578.94
2019-04-13T01:07:43.153Z,102575.97
2019-04-13T01:10:11.764Z,102579.30
2019-04-13T01:12:40.233Z,102575.36
2019-04-13T01:15:08.787Z,102576.52
2019-04-13T01:17:37.255Z,102576.64
2019-04-13T01:20:07.042Z,102578.33
2019-04-13T01:22:35.549Z,102576.64
2019-04-13T01:25:04.674Z,102578.33
2019-04-13T01:27:33.131Z,102572.67
2019-04-13T01:30:01.626Z,102568.82
2019-04-13T01:32:30.100Z,102571.52
2019-04-13T01:35:05.674Z,102574.56
2019-04-13T01:37:28.781Z,102568.55
2019-04-13T01:39:57.240Z,102574.17
2019-04-13T01:42:25.697Z,102565.72
2019-04-13T01:44:54.199Z,102569.66
2019-04-13T01:47:22.670Z,102561.95
2019-04-13T01:49:51.122Z,102571.33
2019-04-13T01:52:19.607Z,102572.52
2019-04-13T01:54:48.187Z,102567.39
2019-04-13T01:57:16.651Z,102568.16
2019-04-13T01:59:45.185Z,102565.50
2019-04-13T02:02:18.204Z,102569.34
2019-04-13T02:04:48.291Z,102561.65
2019-04-13T02:07:27.433Z,102565.77
2019-04-13T02:10:03.290Z,102553.70
2019-04-13T02:12:31.750Z,102558.83
2019-04-13T02:15:00.237Z,102559.36
2019-04-13T02:17:28.711Z,102559.36
2019-04-13T02:19:57.239Z,102563.08
2019-04-13T02:22:25.731Z,102558.08
2019-04-13T02:24:54.188Z,102551.14
2019-04-13T02:27:22.644Z,102567.66
2019-04-13T02:29:51.150Z,102562.53
2019-04-13T02:32:19.604Z,102559.09
2019-04-13T02:34:48.055Z,102562.14
2019-04-13T02:37:16.603Z,102565.19
2019-04-13T02:39:45.053Z,102562.63
2019-04-13T02:42:13.516Z,102567.39
2019-04-13T02:44:42.016Z,102565.59
2019-04-13T02:47:10.474Z,102567.76
2019-04-13T02:49:38.945Z,102565.10
2019-04-13T02:52:07.428Z,102568.16
2019-04-13T02:54:35.881Z,102563.42
2019-04-13T02:57:04.600Z,102567.27
2019-04-13T02:59:33.055Z,102559.45
2019-04-13T03:02:01.506Z,102553.70
2019-04-13T03:04:30.043Z,102556.18
2019-04-13T03:06:58.540Z,102552.20
2019-04-13T03:09:27.042Z,102562.73
2019-04-13T03:11:55.495Z,102558.40
2019-04-13T03:14:23.990Z,102559.55
2019-04-13T03:16:57.140Z,102560.34
2019-04-13T03:19:33.005Z,102550.23
2019-04-13T03:22:01.492Z,102556.43
2019-04-13T03:24:29.954Z,102556.34
2019-04-13T03:26:58.467Z,102556.08
2019-04-13T03:29:26.938Z,102554.31
2019-04-13T03:31:55.389Z,102558.95
2019-04-13T03:34:23.939Z,102561.52
2019-04-13T03:36:52.381Z,102563.16
2019-04-13T03:39:20.838Z,102563.06
2019-04-13T03:41:49.331Z,102561.17
2019-04-13T03:44:17.795Z,102565.90
2019-04-13T03:46:46.252Z,102562.32
2019-04-13T03:49:14.777Z,102564.39
2019-04-13T03:51:43.224Z,102562.89
2019-04-13T03:54:11.702Z,102566.73
2019-04-13T03:56:40.182Z,102564.05
2019-04-13T03:59:09.640Z,102566.39
2019-04-13T04:01:38.086Z,102564.98
2019-04-13T04:04:06.587Z,102562.69
2019-04-13T04:06:35.039Z,102567.32
2019-04-13T04:09:05.426Z,102564.41
2019-04-13T04:11:33.919Z,102560.34
2019-04-13T04:14:02.384Z,102567.02
2019-04-13T04:16:31.039Z,102565.23
2019-04-13T04:18:59.538Z,102563.83
2019-04-13T04:21:27.991Z,102562.95
2019-04-13T04:23:56.448Z,102560.38
2019-04-13T04:26:25.023Z,102564.98
2019-04-13T04:28:53.482Z,102563.44
2019-04-13T04:31:21.960Z,102563.44
2019-04-13T04:33:50.456Z,102566.88
2019-04-13T04:36:23.954Z,102573.69
2019-04-13T04:38:49.089Z,102565.23
2019-04-13T04:41:17.590Z,102569.17
2019-04-13T04:43:46.046Z,102569.30
2019-04-13T04:46:14.508Z,102569.04
2019-04-13T04:48:42.996Z,102567.45
2019-04-13T04:51:11.755Z,102571.56
2019-04-13T04:53:40.190Z,102562.95
2019-04-13T04:56:08.703Z,102557.55
2019-04-13T04:58:37.150Z,102558.57
2019-04-13T05:01:05.735Z,102560.86
2019-04-13T05:03:34.224Z,102555.56
2019-04-13T05:06:02.703Z,102563.60
2019-04-13T05:08:31.147Z,102560.16
2019-04-13T05:10:59.654Z,102559.22
2019-04-13T05:13:28.109Z,102560.59
2019-04-13T05:15:56.565Z,102561.12
2019-04-13T05:18:25.034Z,102564.17
2019-04-13T05:20:53.490Z,102556.20
2019-04-13T05:23:21.946Z,102553.38
2019-04-13T05:25:50.431Z,102558.33
2019-04-13T05:28:18.892Z,102553.20
2019-04-13T05:30:47.345Z,102554.20
2019-04-13T05:33:15.844Z,102559.47
2019-04-13T05:35:44.310Z,102563.04
2019-04-13T05:38:12.763Z,102563.66
2019-04-13T05:40:41.249Z,102564.27
2019-04-13T05:43:09.699Z,102566.26
2019-04-13T05:45:38.161Z,102564.44
2019-04-13T05:48:06.654Z,102563.49
2019-04-13T05:50:35.116Z,102570.21
2019-04-13T05:53:03.585Z,102570.95
2019-04-13T05:55:32.080Z,102569.34
2019-04-13T05:58:00.527Z,102564.97
2019-04-13T06:00:28.981Z,102569.37
2019-04-13T06:02:58.467Z,102572.60
2019-04-13T06:05:26.929Z,102568.01
2019-04-13T06:07:55.382Z,102577.54
2019-04-13T06:10:23.884Z,102586.04
2019-04-13T06:12:54.196Z,102586.04
2019-04-13T06:15:22.665Z,102576.27
2019-04-13T06:17:52.784Z,102576.27
2019-04-13T06:20:21.240Z,102574.63
2019-04-13T06:22:52.060Z,102582.02
2019-04-13T06:25:19.915Z,102581.66
2019-04-13T06:27:48.375Z,102581.66
2019-04-13T06:30:27.343Z,102583.55
2019-04-13T06:32:57.441Z,102574.46
2019-04-13T06:35:27.565Z,102574.46
2019-04-13T06:37:56.048Z,102572.13
2019-04-13T06:40:24.511Z,102567.27
2019-04-13T06:42:54.766Z,102561.92
2019-04-13T06:45:23.179Z,102568.55
2019-04-13T06:47:51.631Z,102568.55
2019-04-13T06:50:20.090Z,102568.55
2019-04-13T06:52:48.595Z,102576.95
2019-04-13T06:55:17.040Z,102576.78
2019-04-13T06:57:45.561Z,102576.80
2019-04-13T07:00:15.597Z,102575.41
2019-04-13T07:02:44.305Z,102575.41
2019-04-13T07:05:12.962Z,102572.95
2019-04-13T07:07:45.962Z,102578.17
2019-04-13T07:10:31.019Z,102579.66
2019-04-13T07:12:59.355Z,102578.60
2019-04-13T07:15:31.560Z,102575.04
2019-04-13T07:17:59.739Z,102576.84
2019-04-13T07:20:28.237Z,102580.00
2019-04-13T07:23:00.528Z,102576.55
2019-04-13T07:25:33.179Z,102570.42
2019-04-13T07:28:01.737Z,102574.38
2019-04-13T07:30:29.599Z,102576.84
2019-04-13T07:32:58.059Z,102572.40
2019-04-13T07:35:26.584Z,102575.56
2019-04-13T07:37:55.049Z,102573.77
2019-04-13T07:40:23.515Z,102576.23
2019-04-13T07:42:51.996Z,102570.87
2019-04-13T07:45:27.819Z,102571.49
2019-04-13T07:48:13.790Z,102574.77
2019-04-13T07:50:50.118Z,102575.06
2019-04-13T07:53:20.259Z,102571.08
2019-04-13T07:55:48.715Z,102569.39
2019-04-13T07:58:18.836Z,102562.91
2019-04-13T08:00:47.341Z,102569.86
2019-04-13T08:03:15.792Z,102560.31
2019-04-13T08:05:44.513Z,102562.14
2019-04-13T08:08:13.013Z,102558.84
2019-04-13T08:10:41.455Z,102559.13
2019-04-13T08:13:09.907Z,102556.52
2019-04-13T08:15:38.406Z,102558.87
2019-04-13T08:18:08.906Z,102554.98
2019-04-13T08:20:37.378Z,102548.81
2019-04-13T08:23:07.636Z,102555.13
2019-04-13T08:25:37.742Z,102557.58
2019-04-13T08:28:06.263Z,102550.19
2019-04-13T08:30:35.999Z,102553.14
2019-04-13T08:33:04.629Z,102558.23
2019-04-13T08:35:33.059Z,102548.77
2019-04-13T08:38:12.509Z,102549.20
2019-04-13T08:40:31.722Z,102554.02
2019-04-13T08:43:00.179Z,102554.45
2019-04-13T08:45:28.701Z,102544.63
2019-04-13T08:47:57.146Z,102537.08
2019-04-13T08:50:25.592Z,102542.27
2019-04-13T08:52:54.267Z,102532.36
2019-04-13T08:55:22.706Z,102543.11
2019-04-13T08:57:51.161Z,102537.38
2019-04-13T09:00:19.718Z,102530.62
2019-04-13T09:02:48.174Z,102531.85
2019-04-13T09:05:16.644Z,102529.20
2019-04-13T09:07:46.133Z,102527.81
2019-04-13T09:10:16.632Z,102521.70
2019-04-13T09:12:51.088Z,102521.93
2019-04-13T09:15:16.833Z,102526.58
2019-04-13T09:17:57.735Z,102517.39
2019-04-13T09:20:41.473Z,102487.20
2019-04-13T09:23:10.896Z,102519.67
2019-04-13T09:25:39.424Z,102513.26
2019-04-13T09:28:11.560Z,102513.96
2019-04-13T09:30:39.731Z,102507.41
2019-04-13T09:33:10.544Z,102509.41
2019-04-13T09:35:39.014Z,102493.79
2019-04-13T09:38:07.460Z,102500.25
2019-04-13T09:40:35.921Z,102496.71
2019-04-13T09:43:06.149Z,102488.69
2019-04-13T09:45:35.084Z,102487.96
2019-04-13T09:48:03.516Z,102484.89
2019-04-13T09:50:31.981Z,102490.63
2019-04-13T09:53:00.442Z,102487.48
2019-04-13T09:55:29.383Z,102491.44
2019-04-13T09:58:00.834Z,102497.01
2019-04-13T10:00:28.390Z,102491.67
2019-04-13T10:02:56.990Z,102491.00
2019-04-13T10:05:29.219Z,102488.32
2019-04-13T10:07:55.669Z,102491.52
2019-04-13T10:10:24.257Z,102494.44
2019-04-13T10:13:00.103Z,102482.42
2019-04-13T10:15:48.665Z,102488.46
2019-04-13T10:18:22.405Z,102484.11
2019-04-13T10:20:50.837Z,102472.50
2019-04-13T10:23:19.285Z,102488.63
2019-04-13T10:25:47.793Z,102472.86
2019-04-13T10:28:16.869Z,102471.01
2019-04-13T10:30:45.961Z,102468.23
2019-04-13T10:33:14.479Z,102475.12
2019-04-13T10:35:43.184Z,102473.03
2019-04-13T10:38:13.278Z,102476.41
2019-04-13T10:40:42.895Z,102479.32
2019-04-13T10:43:11.419Z,102480.64
2019-04-13T10:45:45.199Z,102476.20
2019-04-13T10:48:18.497Z,102480.02
2019-04-13T10:50:48.602Z,102487.59
2019-04-13T10:53:17.060Z,102477.10
2019-04-13T10:55:45.599Z,102473.08
2019-04-13T10:58:14.129Z,102476.39
2019-04-13T11:00:42.566Z,102482.45
2019-04-13T11:03:11.085Z,102486.64
2019-04-13T11:05:42.274Z,102481.47
2019-04-13T11:08:11.946Z,102476.86
2019-04-13T11:10:42.944Z,102478.72
2019-04-13T11:13:12.524Z,102465.47
2019-04-13T11:15:44.301Z,102472.99
2019-04-13T11:18:12.400Z,102471.53
2019-04-13T11:20:45.284Z,102473.53
2019-04-13T11:23:15.266Z,102494.05
2019-04-13T11:25:46.696Z,102471.06
2019-04-13T11:28:16.318Z,102469.68
2019-04-13T11:30:46.460Z,102459.44
2019-04-13T11:33:15.027Z,102484.49
2019-04-13T11:35:48.683Z,102471.92
2019-04-13T11:38:24.359Z,102467.06
2019-04-13T11:41:04.697Z,102473.21
2019-04-13T11:43:46.734Z,102466.91
2019-04-13T11:46:29.992Z,102461.27
2019-04-13T11:49:11.396Z,102454.59
2019-04-13T11:51:54.480Z,102462.51
2019-04-13T11:54:28.122Z,102463.66
2019-04-13T11:56:56.216Z,102459.50
2019-04-13T11:59:27.615Z,102463.16
2019-04-13T12:02:08.066Z,102462.48
2019-04-13T12:04:53.079Z,102458.73
2019-04-13T12:07:38.374Z,102466.55
2019-04-13T12:10:21.795Z,102460.39
2019-04-13T12:13:09.404Z,102458.81
2019-04-13T12:15:39.634Z,102455.61
2019-04-13T12:18:10.237Z,102462.53
2019-04-13T12:20:58.476Z,102460.58
2019-04-13T12:23:27.006Z,102450.28
2019-04-13T12:25:56.587Z,102460.45
2019-04-13T12:28:25.219Z,102461.96
2019-04-13T12:30:56.490Z,102456.16
2019-04-13T12:33:26.943Z,102469.88
2019-04-13T12:35:57.027Z,102473.02
2019-04-13T12:38:25.551Z,102454.83
2019-04-13T12:40:58.381Z,102468.13
2019-04-13T12:43:30.406Z,102460.47
2019-04-13T12:46:00.347Z,102477.46
2019-04-13T12:48:30.044Z,102457.26
2019-04-13T12:50:59.827Z,102455.47
2019-04-13T12:53:28.339Z,102450.41
2019-04-13T12:55:56.941Z,102452.47
2019-04-13T12:58:27.144Z,102450.92
2019-04-13T13:01:00.026Z,102449.30
2019-04-13T13:03:36.514Z,102451.73
2019-04-13T13:06:05.651Z,102448.14
2019-04-13T13:08:36.892Z,102440.70
2019-04-13T13:11:12.105Z,102451.19
2019-04-13T13:13:39.038Z,102453.22
2019-04-13T13:16:14.939Z,102448.22
2019-04-13T13:18:42.356Z,102443.30
2019-04-13T13:21:13.678Z,102453.86
2019-04-13T13:26:52.212Z,102437.32
2019-04-13T13:29:24.998Z,102442.47
2019-04-13T13:31:53.513Z,102444.92
2019-04-13T13:34:28.052Z,102460.64
2019-04-13T13:36:57.878Z,102440.72
2019-04-13T13:39:30.074Z,102445.02
2019-04-13T13:42:00.290Z,102441.92
2019-04-13T13:44:30.750Z,102447.45
2019-04-13T13:47:02.659Z,102445.69
2019-04-13T13:49:36.013Z,102453.02
2019-04-13T13:52:08.222Z,102446.16
2019-04-13T13:54:37.710Z,102451.50
2019-04-13T13:57:06.446Z,102440.89
2019-04-13T13:59:35.819Z,102432.01
2019-04-13T14:02:22.349Z,102432.16
2019-04-13T14:04:55.370Z,102431.70
2019-04-13T14:07:25.787Z,102433.37
2019-04-13T14:10:13.660Z,102435.23
2019-04-13T14:12:46.856Z,102434.91
2019-04-13T14:15:15.390Z,102424.23
2019-04-13T14:17:50.475Z,102423.27
2019-04-13T14:20:17.802Z,102426.91
2019-04-13T14:22:47.976Z,102443.39
2019-04-13T14:25:16.478Z,102430.64
2019-04-13T14:27:44.940Z,102436.36
2019-04-13T14:30:17.593Z,102429.18
2019-04-13T14:32:52.849Z,102428.70
2019-04-13T14:35:21.310Z,102432.66
2019-04-13T14:37:55.330Z,102434.70
2019-04-13T14:40:23.846Z,102427.17
2019-04-13T14:42:54.948Z,102430.58
2019-04-13T14:45:27.234Z,102439.27
2019-04-13T14:47:56.475Z,102434.27
2019-04-13T14:50:25.152Z,102431.94
2019-04-13T14:52:53.616Z,102434.52
2019-04-13T14:55:22.246Z,102429.34
2019-04-13T14:57:50.715Z,102433.13
2019-04-13T15:00:21.189Z,102432.66
2019-04-13T15:02:50.500Z,102425.63
2019-04-13T15:05:19.007Z,102427.33
2019-04-13T15:07:48.841Z,102429.81
2019-04-13T15:10:17.299Z,102434.67
2019-04-13T15:12:45.799Z,102436.84
2019-04-13T15:15:15.540Z,102434.16
2019-04-13T15:17:49.340Z,102437.09
2019-04-13T15:20:23.047Z,102437.15
2019-04-13T15:22:49.758Z,102437.20
2019-04-13T15:25:20.476Z,102442.04
2019-04-13T15:27:53.213Z,102443.89
2019-04-13T15:30:20.305Z,102451.89
2019-04-13T15:32:49.400Z,102446.13
2019-04-13T15:35:19.176Z,102464.00
2019-04-13T15:37:50.071Z,102446.22
2019-04-13T15:40:22.428Z,102458.17
2019-04-13T15:42:56.957Z,102454.27
2019-04-13T15:45:21.006Z,102450.73
2019-04-13T15:47:49.505Z,102452.38
2019-04-13T15:50:19.944Z,102446.95
2019-04-13T15:52:51.159Z,102450.23
2019-04-13T15:55:20.711Z,102450.54
2019-04-13T15:57:49.394Z,102448.47
2019-04-13T16:00:19.244Z,102446.84
2019-04-13T16:02:49.952Z,102443.08
2019-04-13T16:05:19.821Z,102449.53
2019-04-13T16:07:50.696Z,102449.42
2019-04-13T16:10:21.130Z,102457.49
2019-04-13T16:13:02.650Z,102452.64
2019-04-13T16:15:34.532Z,102450.59
2019-04-13T16:18:04.613Z,102452.02
2019-04-13T16:20:38.090Z,102451.02
2019-04-13T16:23:08.963Z,102452.02
2019-04-13T16:25:44.561Z,102447.44
2019-04-13T16:28:20.046Z,102455.05
2019-04-13T16:31:09.580Z,102453.52
2019-04-13T16:33:48.278Z,102454.69
2019-04-13T16:36:35.396Z,102454.45
2019-04-13T16:39:11.795Z,102458.83
2019-04-13T16:41:38.066Z,102457.44
2019-04-13T16:44:24.316Z,102460.44
2019-04-13T16:46:55.819Z,102461.69
2019-04-13T16:49:29.385Z,102472.09
2019-04-13T16:52:05.325Z,102459.56
2019-04-13T16:54:50.467Z,102461.17
2019-04-13T16:57:15.171Z,102464.64
2019-04-13T17:00:01.756Z,102468.52
2019-04-13T17:02:46.625Z,102474.18
2019-04-13T17:05:20.200Z,102468.91
2019-04-13T17:07:54.883Z,102478.68
2019-04-13T17:10:24.929Z,102468.73
2019-04-13T17:12:56.965Z,102475.23
2019-04-13T17:15:33.367Z,102471.37
2019-04-13T17:18:03.754Z,102474.15
2019-04-13T17:20:35.510Z,102468.98
2019-04-13T17:23:25.034Z,102469.84
2019-04-13T17:26:00.084Z,102475.96
2019-04-13T17:28:43.503Z,102482.84
2019-04-13T17:31:20.597Z,102481.72
2019-04-13T17:33:51.982Z,102480.45
2019-04-13T17:36:22.728Z,102478.00
2019-04-13T17:38:53.738Z,102473.01
2019-04-13T17:41:25.258Z,102473.01
2019-04-13T17:44:02.120Z,102468.37
2019-04-13T17:46:49.899Z,102476.39
2019-04-13T17:49:25.982Z,102482.81
2019-04-13T17:52:13.255Z,102493.48
2019-04-13T17:54:49.589Z,102493.48
2019-04-13T17:57:22.826Z,102485.67
2019-04-13T18:00:03.729Z,102487.86
2019-04-13T18:02:52.711Z,102482.39
2019-04-13T18:05:41.424Z,102482.39
2019-04-13T18:08:40.732Z,102488.31
2019-04-13T18:11:13.105Z,102488.31
2019-04-13T18:13:59.436Z,102495.31
2019-04-13T18:16:34.312Z,102499.66
2019-04-13T18:19:06.480Z,102500.03
2019-04-13T18:21:34.974Z,102500.03
2019-04-13T18:24:03.790Z,102507.14
2019-04-13T18:26:42.049Z,102506.02
2019-04-13T18:29:17.411Z,102508.27
2019-04-13T18:31:48.215Z,102510.44
2019-04-13T18:34:18.792Z,102499.16
2019-04-13T18:36:50.710Z,102516.41
2019-04-13T18:39:21.223Z,102516.41
2019-04-13T18:41:50.759Z,102511.55
2019-04-13T18:44:21.628Z,102517.38
2019-04-13T18:46:52.762Z,102509.14
2019-04-13T18:49:23.894Z,102509.14
2019-04-13T18:51:52.407Z,102517.13
2019-04-13T18:54:22.166Z,102512.58
2019-04-13T18:56:53.331Z,102511.97
2019-04-13T18:59:24.064Z,102516.59
2019-04-13T19:01:53.930Z,102518.16
2019-04-13T19:04:22.429Z,102525.37
2019-04-13T19:06:50.906Z,102525.64
2019-04-13T19:09:21.124Z,102520.91
2019-04-13T19:11:49.605Z,102515.94
2019-04-13T19:14:19.613Z,102526.11
2019-04-13T19:16:49.754Z,102522.42
2019-04-13T19:19:19.909Z,102526.58
2019-04-13T19:21:52.228Z,102526.86
2019-04-13T19:24:20.773Z,102524.57
2019-04-13T19:26:49.235Z,102524.97
2019-04-13T19:29:21.451Z,102529.22
2019-04-13T19:31:52.701Z,102533.06
2019-04-13T19:34:22.905Z,102534.71
2019-04-13T19:36:53.225Z,102532.15
2019-04-13T19:39:24.687Z,102528.30
2019-04-13T19:41:55.000Z,102529.70
2019-04-13T19:44:24.218Z,102527.63
2019-04-13T19:46:52.745Z,102526.46
2019-04-13T19:49:21.266Z,102521.81
2019-04-13T19:52:10.197Z,102525.78
2019-04-13T19:54:39.792Z,102523.42
2019-04-13T19:57:09.487Z,102526.11
2019-04-13T19:59:39.894Z,102524.03
2019-04-13T20:02:08.232Z,102488.50
2019-04-13T20:04:37.880Z,102522.95
2019-04-13T20:07:08.337Z,102522.68
2019-04-13T20:09:38.393Z,102529.83
2019-04-13T20:12:09.824Z,102525.70
2019-04-13T20:14:39.965Z,102518.59
2019-04-13T20:17:08.453Z,102516.12
2019-04-13T20:19:41.895Z,102517.52
2019-04-13T20:22:13.262Z,102515.75
2019-04-13T20:24:44.744Z,102517.41
2019-04-13T20:27:15.189Z,102523.61
2019-04-13T20:29:46.977Z,102519.04
2019-04-13T20:32:16.707Z,102516.94
2019-04-13T20:34:46.591Z,102520.98
2019-04-13T20:37:18.750Z,102523.83
2019-04-13T20:39:57.208Z,102517.96
2019-04-13T20:42:32.900Z,102517.36
2019-04-13T20:45:02.694Z,102518.43
2019-04-13T20:47:31.204Z,102512.29
2019-04-13T20:50:01.342Z,102511.28
2019-04-13T20:52:30.717Z,102514.77
2019-04-13T20:55:00.373Z,102512.20
2019-04-13T21:00:11.813Z,102520.59
2019-04-13T21:02:41.656Z,102511.94
2019-04-13T21:05:20.910Z,102521.37
2019-04-13T21:07:49.320Z,102515.38
2019-04-13T21:10:18.103Z,102521.45
2019-04-13T21:12:46.626Z,102516.64
2019-04-13T21:15:16.063Z,102520.81
2019-04-13T21:17:44.620Z,102532.30
2019-04-13T21:20:16.564Z,102521.43
2019-04-13T21:22:46.338Z,102518.70
2019-04-13T21:25:16.187Z,102511.48
2019-04-13T21:27:44.879Z,102515.38
2019-04-13T21:30:14.311Z,102515.38
2019-04-13T21:32:42.837Z,102516.90
2019-04-13T21:35:12.143Z,102513.64
2019-04-13T21:37:40.701Z,102508.30
2019-04-13T21:40:10.219Z,102504.85
2019-04-13T21:42:38.785Z,102510.31
2019-04-13T21:45:07.989Z,102509.70
2019-04-13T21:47:36.550Z,102507.25
2019-04-13T21:50:24.130Z,102513.39
2019-04-13T21:52:54.206Z,102515.97
2019-04-13T21:55:37.597Z,102515.97
2019-04-13T21:58:07.720Z,102514.00
2019-04-13T22:00:53.190Z,102514.59
2019-04-13T22:03:22.944Z,102514.59
2019-04-13T22:05:52.779Z,102504.72
2019-04-13T22:08:21.364Z,102519.13
2019-04-13T22:10:50.820Z,102510.53
2019-04-13T22:13:20.547Z,102510.53
2019-04-13T22:15:49.183Z,102519.97
2019-04-13T22:18:17.639Z,102519.97
2019-04-13T22:20:48.716Z,102518.28
2019-04-13T22:23:17.190Z,102516.19
2019-04-13T22:25:45.650Z,102516.19
2019-04-13T22:28:16.646Z,102502.85
2019-04-13T22:30:52.386Z,102502.85
2019-04-13T22:33:21.791Z,102509.59
2019-04-13T22:35:58.502Z,102508.79
2019-04-13T22:38:28.058Z,102512.07
2019-04-13T22:40:56.730Z,102516.70
2019-04-13T22:43:26.257Z,102516.70
2019-04-13T22:45:55.691Z,102516.02
2019-04-13T22:48:26.831Z,102518.41
2019-04-13T22:51:09.881Z,102518.41
2019-04-13T22:53:57.201Z,102525.84
2019-04-13T22:56:33.423Z,102525.84
2019-04-13T22:59:02.258Z,102527.12
2019-04-13T23:01:39.820Z,102527.12
2019-04-13T23:04:08.465Z,102524.23
2019-04-13T23:06:37.885Z,102524.23
2019-04-13T23:09:08.577Z,102517.72
2019-04-13T23:11:37.130Z,102520.60
2019-04-13T23:14:06.803Z,102520.28
2019-04-13T23:16:37.615Z,102524.54
2019-04-13T23:19:06.862Z,102514.48
2019-04-13T23:21:35.419Z,102519.22
2019-04-13T23:24:08.049Z,102518.42
2019-04-13T23:26:36.533Z,102518.61
2019-04-13T23:29:06.427Z,102518.61
2019-04-13T23:31:34.967Z,102514.67
2019-04-13T23:34:03.434Z,102515.87
2019-04-13T23:36:33.254Z,102515.87
2019-04-13T23:39:01.856Z,102520.12
2019-04-13T23:41:30.315Z,102517.92
2019-04-13T23:43:58.795Z,102517.92
2019-04-13T23:46:28.546Z,102517.92
2019-04-13T23:48:57.135Z,102514.06
2019-04-13T23:51:25.595Z,102520.50
2019-04-13T23:53:54.068Z,102515.75
2019-04-13T23:56:28.058Z,102510.90
2019-04-13T23:59:04.821Z,102517.05
